createdAt,value
2022-10-17T00:00:50.145Z,101571.63
2022-10-17T00:03:16.831Z,101567.19
2022-10-17T00:05:45.917Z,101564.56
2022-10-17T00:08:14.600Z,101566.34
2022-10-17T00:10:41.450Z,101567.22
2022-10-17T00:13:08.815Z,101561.03
2022-10-17T00:15:35.152Z,101564.56
2022-10-17T00:18:01.886Z,101557.50
2022-10-17T00:20:30.302Z,101555.75
2022-10-17T00:22:57.461Z,101559.31
2022-10-17T00:25:23.983Z,101563.72
2022-10-17T00:27:50.325Z,101558.41
2022-10-17T00:30:18.248Z,101560.22
2022-10-17T00:32:44.808Z,101573.47
2022-10-17T00:35:11.613Z,101567.25
2022-10-17T00:37:38.208Z,101561.97
2022-10-17T00:40:07.887Z,101561.94
2022-10-17T00:42:37.061Z,101559.31
2022-10-17T00:45:20.858Z,101561.97
2022-10-17T00:47:53.875Z,101548.72
2022-10-17T00:50:20.784Z,101549.59
2022-10-17T00:52:48.763Z,101551.38
2022-10-17T00:55:24.979Z,101548.75
2022-10-17T00:57:52.836Z,101548.72
2022-10-17T01:00:19.971Z,101547.84
2022-10-17T01:02:46.354Z,101554.91
2022-10-17T01:05:16.683Z,101548.75
2022-10-17T01:07:44.429Z,101542.56
2022-10-17T01:10:12.109Z,101543.47
2022-10-17T01:12:50.648Z,101531.09
2022-10-17T01:15:29.107Z,101521.38
2022-10-17T01:18:12.024Z,101532.88
2022-10-17T01:21:06.436Z,101527.56
2022-10-17T01:24:00.570Z,101525.81
2022-10-17T01:27:00.909Z,101523.16
2022-10-17T01:30:01.230Z,101515.22
2022-10-17T01:32:44.195Z,101515.22
2022-10-17T01:35:23.654Z,101512.56
2022-10-17T01:38:17.463Z,101512.56
2022-10-17T01:40:50.265Z,101518.72
2022-10-17T01:43:41.296Z,101524.94
2022-10-17T01:46:16.015Z,101514.34
2022-10-17T01:48:46.029Z,101516.97
2022-10-17T01:51:16.821Z,101510.78
2022-10-17T01:53:49.070Z,101500.22
2022-10-17T01:56:16.715Z,101502.00
2022-10-17T01:58:55.985Z,101494.06
2022-10-17T02:01:24.536Z,101482.56
2022-10-17T02:03:52.060Z,101473.72
2022-10-17T02:06:18.445Z,101468.44
2022-10-17T02:08:50.021Z,101466.66
2022-10-17T02:11:22.592Z,101466.66
2022-10-17T02:16:51.459Z,101450.75
2022-10-17T02:19:40.331Z,101461.38
2022-10-17T02:22:15.839Z,101453.44
2022-10-17T02:24:57.154Z,101450.75
2022-10-17T02:27:35.249Z,101450.78
2022-10-17T02:30:29.290Z,101451.66
2022-10-17T02:33:01.109Z,101451.66
2022-10-17T02:35:32.947Z,101449.00
2022-10-17T02:38:00.692Z,101444.63
2022-10-17T02:40:30.627Z,101441.97
2022-10-17T02:43:00.885Z,101444.59
2022-10-17T02:45:29.858Z,101444.63
2022-10-17T02:48:03.685Z,101444.63
2022-10-17T02:50:46.167Z,101438.44
2022-10-17T02:53:17.446Z,101444.59
2022-10-17T02:55:53.680Z,101438.41
2022-10-17T02:58:25.334Z,101437.53
2022-10-17T03:00:55.221Z,101448.13
2022-10-17T03:03:29.752Z,101455.19
2022-10-17T03:05:56.249Z,101441.94
2022-10-17T03:08:23.556Z,101449.00
2022-10-17T03:10:50.535Z,101452.53
2022-10-17T03:13:17.060Z,101441.91
2022-10-17T03:15:43.402Z,101454.25
2022-10-17T03:18:09.938Z,101450.72
2022-10-17T03:20:36.285Z,101450.72
2022-10-17T03:23:02.580Z,101451.59
2022-10-17T03:25:29.031Z,101446.28
2022-10-17T03:27:59.201Z,101457.75
2022-10-17T03:30:25.563Z,101461.28
2022-10-17T03:32:51.878Z,101456.00
2022-10-17T03:35:18.257Z,101467.44
2022-10-17T03:37:44.556Z,101465.66
2022-10-17T03:40:11.179Z,101455.03
2022-10-17T03:42:40.559Z,101466.50
2022-10-17T03:45:07.228Z,101470.94
2022-10-17T03:47:33.559Z,101481.50
2022-10-17T03:49:59.897Z,101470.03
2022-10-17T03:52:26.300Z,101462.06
2022-10-17T03:54:52.658Z,101471.78
2022-10-17T03:57:19.529Z,101462.91
2022-10-17T03:59:45.822Z,101462.91
2022-10-17T04:02:12.334Z,101465.56
2022-10-17T04:04:39.791Z,101465.56
2022-10-17T04:07:06.118Z,101454.97
2022-10-17T04:09:32.483Z,101459.38
2022-10-17T04:11:58.938Z,101461.13
2022-10-17T04:14:25.296Z,101449.66
2022-10-17T04:16:51.728Z,101446.09
2022-10-17T04:19:18.059Z,101465.53
2022-10-17T04:21:44.424Z,101471.72
2022-10-17T04:24:11.845Z,101478.78
2022-10-17T04:26:38.206Z,101472.63
2022-10-17T04:29:04.732Z,101477.91
2022-10-17T04:31:31.491Z,101469.06
2022-10-17T04:33:57.997Z,101468.16
2022-10-17T04:36:24.412Z,101477.03
2022-10-17T04:38:50.733Z,101479.69
2022-10-17T04:41:21.459Z,101480.53
2022-10-17T04:43:50.969Z,101475.25
2022-10-17T04:46:18.460Z,101477.00
2022-10-17T04:48:44.911Z,101481.38
2022-10-17T04:51:14.163Z,101482.28
2022-10-17T04:53:42.410Z,101490.22
2022-10-17T04:56:12.031Z,101485.81
2022-10-17T04:58:39.446Z,101495.47
2022-10-17T05:01:11.617Z,101499.00
2022-10-17T05:03:46.206Z,101495.50
2022-10-17T05:06:16.189Z,101509.59
2022-10-17T05:08:43.714Z,101522.81
2022-10-17T05:11:21.829Z,101521.03
2022-10-17T05:13:53.083Z,101514.00
2022-10-17T05:16:20.159Z,101516.63
2022-10-17T05:18:52.955Z,101509.53
2022-10-17T05:21:21.567Z,101520.13
2022-10-17T05:23:47.968Z,101505.09
2022-10-17T05:26:14.979Z,101514.81
2022-10-17T05:28:41.524Z,101505.13
2022-10-17T05:31:10.431Z,101497.19
2022-10-17T05:33:43.044Z,101522.78
2022-10-17T05:36:10.124Z,101526.31
2022-10-17T05:38:36.486Z,101525.41
2022-10-17T05:41:05.385Z,101525.41
2022-10-17T05:43:32.921Z,101536.03
2022-10-17T05:45:59.353Z,101531.59
2022-10-17T05:48:25.699Z,101530.72
2022-10-17T05:51:00.577Z,101527.16
2022-10-17T05:53:30.797Z,101516.59
2022-10-17T05:56:01.901Z,101523.63
2022-10-17T06:01:15.391Z,101514.81
2022-10-17T06:03:47.751Z,101513.91
2022-10-17T06:06:15.158Z,101520.13
2022-10-17T06:08:41.856Z,101516.59
2022-10-17T06:11:10.166Z,101523.63
2022-10-17T06:13:38.101Z,101528.94
2022-10-17T06:16:05.021Z,101539.59
2022-10-17T06:18:31.867Z,101528.06
2022-10-17T06:21:07.065Z,101528.97
2022-10-17T06:23:34.209Z,101536.03
2022-10-17T06:26:01.907Z,101530.75
2022-10-17T06:28:28.669Z,101530.75
2022-10-17T06:30:55.242Z,101544.00
2022-10-17T06:33:23.170Z,101554.63
2022-10-17T06:35:56.488Z,101559.06
2022-10-17T06:38:23.091Z,101551.06
2022-10-17T06:40:49.634Z,101552.81
2022-10-17T06:43:16.116Z,101555.47
2022-10-17T06:45:42.509Z,101566.09
2022-10-17T06:48:09.381Z,101582.00
2022-10-17T06:50:35.888Z,101588.16
2022-10-17T06:53:02.219Z,101581.06
2022-10-17T06:55:28.588Z,101583.69
2022-10-17T06:57:58.165Z,101589.88
2022-10-17T07:00:26.713Z,101581.91
2022-10-17T07:02:53.057Z,101592.53
2022-10-17T07:05:19.578Z,101596.06
2022-10-17T07:07:47.517Z,101594.28
2022-10-17T07:10:16.104Z,101606.66
2022-10-17T07:12:44.610Z,101603.09
2022-10-17T07:15:11.279Z,101612.81
2022-10-17T07:17:37.609Z,101614.59
2022-10-17T07:20:04.157Z,101597.81
2022-10-17T07:22:33.316Z,101618.13
2022-10-17T07:24:59.682Z,101612.81
2022-10-17T07:27:26.197Z,101614.56
2022-10-17T07:29:52.668Z,101614.56
2022-10-17T07:32:19.028Z,101611.00
2022-10-17T07:34:48.133Z,101618.97
2022-10-17T07:37:14.484Z,101622.47
2022-10-17T07:39:40.874Z,101622.47
2022-10-17T07:42:09.920Z,101631.31
2022-10-17T07:44:36.266Z,101660.50
2022-10-17T07:47:02.673Z,101655.16
2022-10-17T07:49:29.350Z,101663.16
2022-10-17T07:51:55.683Z,101673.75
2022-10-17T07:54:22.818Z,101675.53
2022-10-17T07:56:50.577Z,101686.13
2022-10-17T07:59:18.647Z,101717.09
2022-10-17T08:01:45.317Z,101725.06
2022-10-17T08:04:11.693Z,101742.78
2022-10-17T08:06:38.342Z,101756.03
2022-10-17T08:09:04.767Z,101770.22
2022-10-17T08:11:31.183Z,101787.00
2022-10-17T08:13:57.559Z,101794.97
2022-10-17T08:16:23.982Z,101806.47
2022-10-17T08:18:50.373Z,101800.28
2022-10-17T08:21:16.817Z,101805.59
2022-10-17T08:23:43.172Z,101795.84
2022-10-17T08:26:13.175Z,101785.22
2022-10-17T08:28:40.374Z,101777.25
2022-10-17T08:31:09.864Z,101768.41
2022-10-17T08:33:36.538Z,101756.03
2022-10-17T08:36:05.178Z,101765.72
2022-10-17T08:38:35.333Z,101760.41
2022-10-17T08:41:14.142Z,101776.34
2022-10-17T08:44:02.067Z,101794.03
2022-10-17T08:46:36.212Z,101783.44
2022-10-17T08:49:08.740Z,101786.09
2022-10-17T08:51:52.698Z,101793.19
2022-10-17T08:54:45.906Z,101797.63
2022-10-17T08:57:15.331Z,101785.22
2022-10-17T08:59:43.267Z,101774.59
2022-10-17T09:02:43.745Z,101756.88
2022-10-17T09:05:37.368Z,101749.78
2022-10-17T09:08:29.470Z,101755.09
2022-10-17T09:10:55.760Z,101746.25
2022-10-17T09:13:40.832Z,101735.66
2022-10-17T09:16:07.639Z,101755.13
2022-10-17T09:18:38.800Z,101744.47
2022-10-17T09:21:27.671Z,101766.56
2022-10-17T09:24:08.954Z,101793.13
2022-10-17T09:26:38.806Z,101806.41
2022-10-17T09:29:20.534Z,101810.84
2022-10-17T09:32:21.929Z,101808.16
2022-10-17T09:34:48.674Z,101817.00
2022-10-17T09:37:17.151Z,101789.59
2022-10-17T09:39:44.759Z,101791.34
2022-10-17T09:42:19.317Z,101783.38
2022-10-17T09:44:58.126Z,101774.50
2022-10-17T09:47:47.706Z,101771.84
2022-10-17T09:50:25.764Z,101774.50
2022-10-17T09:52:53.504Z,101773.59
2022-10-17T09:55:39.061Z,101763.84
2022-10-17T09:58:07.288Z,101772.69
2022-10-17T10:00:37.938Z,101790.38
2022-10-17T10:03:23.962Z,101800.97
2022-10-17T10:06:12.472Z,101816.91
2022-10-17T10:09:00.406Z,101827.56
2022-10-17T10:11:45.551Z,101839.06
2022-10-17T10:14:19.382Z,101847.91
2022-10-17T10:16:47.666Z,101852.34
2022-10-17T10:19:29.872Z,101855.00
2022-10-17T10:22:14.704Z,101865.59
2022-10-17T10:24:41.150Z,101874.47
2022-10-17T10:27:14.830Z,101873.59
2022-10-17T10:29:50.113Z,101888.66
2022-10-17T10:32:21.912Z,101885.13
2022-10-17T10:34:57.222Z,101896.63
2022-10-17T10:37:29.931Z,101893.09
2022-10-17T10:39:59.236Z,101901.06
2022-10-17T10:42:39.332Z,101903.72
2022-10-17T10:45:46.385Z,101909.03
2022-10-17T10:48:26.259Z,101897.53
2022-10-17T10:50:57.696Z,101900.19
2022-10-17T10:53:49.729Z,101916.13
2022-10-17T10:56:20.672Z,101919.69
2022-10-17T10:58:53.581Z,101920.56
2022-10-17T11:01:35.145Z,101927.69
2022-10-17T11:04:17.856Z,101932.09
2022-10-17T11:06:46.191Z,101932.09
2022-10-17T11:09:31.323Z,101940.97
2022-10-17T11:12:09.711Z,101938.31
2022-10-17T11:15:12.978Z,101926.75
2022-10-17T11:17:51.108Z,101941.81
2022-10-17T11:20:32.745Z,101945.34
2022-10-17T11:23:23.917Z,101935.63
2022-10-17T11:25:53.033Z,101955.09
2022-10-17T11:28:22.949Z,101967.47
2022-10-17T11:30:57.563Z,101967.47
2022-10-17T11:33:32.518Z,101969.25
2022-10-17T11:36:04.585Z,101975.44
2022-10-17T11:38:42.903Z,101983.41
2022-10-17T11:41:14.210Z,101978.09
2022-10-17T11:44:14.019Z,101986.06
2022-10-17T11:46:42.978Z,101984.31
2022-10-17T11:49:24.495Z,101989.63
2022-10-17T11:52:51.886Z,101986.97
2022-10-17T11:55:24.026Z,101990.53
2022-10-17T11:58:35.750Z,101992.31
2022-10-17T12:01:24.533Z,102001.16
2022-10-17T12:04:17.067Z,101996.72
2022-10-17T12:07:00.959Z,102001.16
2022-10-17T12:09:37.006Z,101998.50
2022-10-17T12:12:04.100Z,101992.28
2022-10-17T12:14:33.225Z,102003.78
2022-10-17T12:17:00.872Z,102002.91
2022-10-17T12:19:33.738Z,102010.03
2022-10-17T12:22:26.252Z,102011.78
2022-10-17T12:25:02.306Z,102017.09
2022-10-17T12:27:39.684Z,102011.78
2022-10-17T12:30:12.232Z,102001.16
2022-10-17T12:33:06.221Z,102010.03
2022-10-17T12:35:38.865Z,102020.63
2022-10-17T12:38:15.509Z,102018.88
2022-10-17T12:40:46.307Z,102023.28
2022-10-17T12:43:15.186Z,102022.41
2022-10-17T12:45:57.631Z,102031.25
2022-10-17T12:48:35.933Z,102033.00
2022-10-17T12:51:37.458Z,102028.59
2022-10-17T12:54:12.647Z,102034.78
2022-10-17T12:56:57.958Z,102037.44
2022-10-17T12:59:27.620Z,102036.53
2022-10-17T13:01:58.529Z,102041.84
2022-10-17T13:04:26.774Z,102049.81
2022-10-17T13:06:56.232Z,102044.50
2022-10-17T13:09:27.788Z,102041.84
2022-10-17T13:11:57.346Z,102047.19
2022-10-17T13:14:25.573Z,102042.75
2022-10-17T13:16:58.337Z,102045.41
2022-10-17T13:19:28.922Z,102052.50
2022-10-17T13:21:59.839Z,102052.47
2022-10-17T13:24:35.153Z,102064.00
2022-10-17T13:27:02.741Z,102071.06
2022-10-17T13:29:31.888Z,102072.84
2022-10-17T13:32:04.091Z,102081.69
2022-10-17T13:34:32.409Z,102082.59
2022-10-17T13:37:06.249Z,102082.59
2022-10-17T13:39:55.402Z,102102.06
2022-10-17T13:42:27.339Z,102100.28
2022-10-17T13:44:54.898Z,102094.94
2022-10-17T13:47:28.410Z,102100.25
2022-10-17T13:49:56.182Z,102100.28
2022-10-17T13:52:27.977Z,102103.81
2022-10-17T13:54:55.410Z,102110.00
2022-10-17T13:57:29.815Z,102117.09
2022-10-17T14:00:02.565Z,102110.00
2022-10-17T14:02:30.829Z,102108.22
2022-10-17T14:05:23.004Z,102107.34
2022-10-17T14:10:42.157Z,102110.00
2022-10-17T14:13:24.490Z,102103.81
2022-10-17T14:15:52.463Z,102102.91
2022-10-17T14:18:23.928Z,102100.25
2022-10-17T14:23:42.796Z,102100.22
2022-10-17T14:26:13.320Z,102094.91
2022-10-17T14:28:43.158Z,102099.34
2022-10-17T14:31:22.506Z,102109.06
2022-10-17T14:33:51.092Z,102102.88
2022-10-17T14:36:19.226Z,102103.75
2022-10-17T14:38:48.304Z,102108.16
2022-10-17T14:41:41.868Z,102109.91
2022-10-17T14:44:35.862Z,102116.13
2022-10-17T14:47:42.306Z,102123.22
2022-10-17T14:50:06.044Z,102132.06
2022-10-17T14:52:34.098Z,102126.78
2022-10-17T14:55:20.390Z,102125.88
2022-10-17T14:57:46.753Z,102137.41
2022-10-17T15:00:15.165Z,102136.56
2022-10-17T15:02:41.870Z,102133.00
2022-10-17T15:05:12.985Z,102132.13
2022-10-17T15:07:40.509Z,102148.06
2022-10-17T15:10:07.186Z,102139.19
2022-10-17T15:12:33.607Z,102148.94
2022-10-17T15:15:00.021Z,102159.56
2022-10-17T15:17:29.854Z,102156.06
2022-10-17T15:19:57.057Z,102163.13
2022-10-17T15:22:24.083Z,102164.91
2022-10-17T15:24:50.431Z,102166.69
2022-10-17T15:27:22.989Z,102172.00
2022-10-17T15:29:50.175Z,102169.31
2022-10-17T15:32:16.523Z,102170.22
2022-10-17T15:34:43.793Z,102176.41
2022-10-17T15:37:18.505Z,102184.41
2022-10-17T15:39:45.778Z,102190.59
2022-10-17T15:42:12.266Z,102183.53
2022-10-17T15:44:38.759Z,102187.97
2022-10-17T15:47:06.263Z,102193.28
2022-10-17T15:49:33.884Z,102188.88
2022-10-17T15:52:00.297Z,102187.09
2022-10-17T15:54:26.649Z,102186.19
2022-10-17T15:56:55.069Z,102184.44
2022-10-17T15:59:34.534Z,102193.31
2022-10-17T16:02:00.931Z,102203.06
2022-10-17T16:04:29.239Z,102212.78
2022-10-17T16:06:55.560Z,102217.25
2022-10-17T16:09:21.933Z,102215.47
2022-10-17T16:11:48.319Z,102218.13
2022-10-17T16:14:16.698Z,102227.00
2022-10-17T16:16:43.595Z,102231.44
2022-10-17T16:19:10.062Z,102228.78
2022-10-17T16:21:39.154Z,102221.66
2022-10-17T16:24:06.495Z,102239.38
2022-10-17T16:26:33.013Z,102232.28
2022-10-17T16:29:02.761Z,102224.31
2022-10-17T16:31:33.259Z,102229.63
2022-10-17T16:34:01.019Z,102236.66
2022-10-17T16:36:27.884Z,102231.34
2022-10-17T16:38:54.350Z,102238.44
2022-10-17T16:41:27.998Z,102244.66
2022-10-17T16:43:56.612Z,102231.38
2022-10-17T16:46:24.678Z,102237.53
2022-10-17T16:48:51.345Z,102235.78
2022-10-17T16:51:19.031Z,102254.34
2022-10-17T16:53:47.199Z,102251.72
2022-10-17T16:56:17.943Z,102253.47
2022-10-17T16:58:44.814Z,102265.00
2022-10-17T17:01:16.663Z,102258.75
2022-10-17T17:03:43.584Z,102263.19
2022-10-17T17:06:14.424Z,102276.47
2022-10-17T17:08:42.421Z,102276.44
2022-10-17T17:11:10.754Z,102269.34
2022-10-17T17:13:37.612Z,102273.75
2022-10-17T17:16:15.836Z,102274.66
2022-10-17T17:18:42.895Z,102277.28
2022-10-17T17:21:14.120Z,102279.06
2022-10-17T17:23:42.049Z,102279.06
2022-10-17T17:26:13.558Z,102274.63
2022-10-17T17:28:40.775Z,102278.16
2022-10-17T17:31:09.438Z,102280.81
2022-10-17T17:33:38.308Z,102292.31
2022-10-17T17:36:05.930Z,102290.53
2022-10-17T17:38:36.240Z,102291.41
2022-10-17T17:41:04.008Z,102297.63
2022-10-17T17:43:31.204Z,102295.84
2022-10-17T17:46:00.453Z,102297.59
2022-10-17T17:48:26.794Z,102302.03
2022-10-17T17:50:53.188Z,102307.31
2022-10-17T17:53:19.671Z,102307.28
2022-10-17T17:55:46.052Z,102314.38
2022-10-17T17:58:12.488Z,102323.22
2022-10-17T18:00:40.629Z,102318.78
2022-10-17T18:03:07.482Z,102320.56
2022-10-17T18:05:36.765Z,102308.16
2022-10-17T18:08:04.824Z,102316.13
2022-10-17T18:10:31.221Z,102313.47
2022-10-17T18:12:57.564Z,102321.44
2022-10-17T18:15:23.914Z,102326.75
2022-10-17T18:17:50.423Z,102329.38
2022-10-17T18:20:16.948Z,102333.81
2022-10-17T18:22:43.337Z,102334.69
2022-10-17T18:25:09.789Z,102335.56
2022-10-17T18:27:36.327Z,102343.50
2022-10-17T18:30:03.002Z,102343.50
2022-10-17T18:32:32.702Z,102344.41
2022-10-17T18:34:59.318Z,102343.53
2022-10-17T18:37:25.658Z,102350.59
2022-10-17T18:39:54.070Z,102349.69
2022-10-17T18:42:20.796Z,102361.22
2022-10-17T18:44:47.821Z,102363.00
2022-10-17T18:47:14.180Z,102361.25
2022-10-17T18:49:40.669Z,102357.72
2022-10-17T18:52:07.081Z,102356.84
2022-10-17T18:54:34.599Z,102358.59
2022-10-17T18:57:01.873Z,102363.00
2022-10-17T18:59:28.262Z,102364.81
2022-10-17T19:01:54.669Z,102361.25
2022-10-17T19:04:21.130Z,102365.69
2022-10-17T19:06:47.498Z,102373.63
2022-10-17T19:09:15.508Z,102370.06
2022-10-17T19:11:42.808Z,102371.81
2022-10-17T19:14:13.499Z,102378.00
2022-10-17T19:16:43.336Z,102378.94
2022-10-17T19:19:19.303Z,102386.03
2022-10-17T19:21:59.958Z,102386.03
2022-10-17T19:24:27.749Z,102379.84
2022-10-17T19:26:56.853Z,102375.44
2022-10-17T19:29:26.012Z,102373.66
2022-10-17T19:31:52.718Z,102382.53
2022-10-17T19:34:19.318Z,102374.56
2022-10-17T19:36:46.018Z,102370.13
2022-10-17T19:39:18.370Z,102371.88
2022-10-17T19:41:46.720Z,102376.28
2022-10-17T19:44:14.179Z,102383.34
2022-10-17T19:46:40.550Z,102384.22
2022-10-17T19:49:07.423Z,102378.00
2022-10-17T19:51:36.281Z,102385.06
2022-10-17T19:54:03.009Z,102384.19
2022-10-17T19:56:31.742Z,102373.53
2022-10-17T19:58:59.429Z,102382.41
2022-10-17T20:01:28.979Z,102386.81
2022-10-17T20:03:56.350Z,102400.97
2022-10-17T20:06:23.696Z,102391.22
2022-10-17T20:08:50.648Z,102396.53
2022-10-17T20:11:20.290Z,102400.06
2022-10-17T20:13:47.343Z,102406.22
2022-10-17T20:16:23.661Z,102401.84
2022-10-17T20:18:51.513Z,102420.34
2022-10-17T20:21:21.494Z,102421.25
2022-10-17T20:23:47.938Z,102426.53
2022-10-17T20:29:04.881Z,102438.00
2022-10-17T20:31:31.333Z,102442.47
2022-10-17T20:33:59.108Z,102445.97
2022-10-17T20:36:26.108Z,102448.66
2022-10-17T20:38:56.683Z,102451.31
2022-10-17T20:41:24.001Z,102457.50
2022-10-17T20:43:54.982Z,102454.00
2022-10-17T20:46:35.536Z,102460.19
2022-10-17T20:49:04.238Z,102464.63
2022-10-17T20:51:30.722Z,102472.53
2022-10-17T20:56:32.755Z,102476.16
2022-10-17T20:59:05.258Z,102484.09
2022-10-17T21:01:33.682Z,102480.56
2022-10-17T21:04:21.402Z,102494.75
2022-10-17T21:06:48.768Z,102496.53
2022-10-17T21:09:15.302Z,102485.91
2022-10-17T21:11:43.018Z,102493.88
2022-10-17T21:14:11.484Z,102500.03
2022-10-17T21:16:39.458Z,102492.06
2022-10-17T21:19:09.094Z,102507.13
2022-10-17T21:21:37.602Z,102494.72
2022-10-17T21:24:06.902Z,102511.50
2022-10-17T21:26:37.485Z,102503.53
2022-10-17T21:29:06.939Z,102515.00
2022-10-17T21:31:35.881Z,102507.03
2022-10-17T21:34:13.965Z,102509.63
2022-10-17T21:36:41.130Z,102502.53
2022-10-17T21:41:39.029Z,102506.97
2022-10-17T21:44:11.143Z,102505.13
2022-10-17T21:46:37.914Z,102506.00
2022-10-17T21:49:04.280Z,102500.69
2022-10-17T21:51:30.610Z,102497.16
2022-10-17T21:53:58.710Z,102505.97
2022-10-17T21:56:28.530Z,102511.28
2022-10-17T21:58:56.403Z,102517.47
2022-10-17T22:01:25.352Z,102522.78
2022-10-17T22:03:54.514Z,102531.66
2022-10-17T22:06:40.663Z,102520.97
2022-10-17T22:09:15.732Z,102528.06
2022-10-17T22:11:45.879Z,102533.38
2022-10-17T22:14:15.301Z,102523.69
2022-10-17T22:16:41.991Z,102516.59
2022-10-17T22:19:08.946Z,102524.56
2022-10-17T22:21:37.009Z,102516.69
2022-10-17T22:24:06.442Z,102520.16
2022-10-17T22:26:35.032Z,102519.28
2022-10-17T22:29:01.535Z,102520.19
2022-10-17T22:31:28.046Z,102522.78
2022-10-17T22:33:57.122Z,102517.50
2022-10-17T22:36:23.548Z,102522.78
2022-10-17T22:38:50.011Z,102526.25
2022-10-17T22:41:16.726Z,102521.81
2022-10-17T22:43:43.050Z,102528.00
2022-10-17T22:46:12.800Z,102523.53
2022-10-17T22:48:39.637Z,102540.34
2022-10-17T22:51:06.247Z,102535.88
2022-10-17T22:53:32.675Z,102539.44
2022-10-17T22:56:01.251Z,102528.78
2022-10-17T22:58:29.226Z,102536.78
2022-10-17T23:00:56.130Z,102534.13
2022-10-17T23:03:23.674Z,102534.13
2022-10-17T23:05:50.670Z,102526.13
2022-10-17T23:08:20.847Z,102527.03
2022-10-17T23:10:47.748Z,102528.81
2022-10-17T23:13:15.179Z,102534.09
2022-10-17T23:15:42.576Z,102527.03
2022-10-17T23:18:09.734Z,102527.03
2022-10-17T23:20:37.591Z,102530.59
2022-10-17T23:23:04.682Z,102540.28
2022-10-17T23:25:33.307Z,102542.94
2022-10-17T23:27:59.666Z,102547.34
2022-10-17T23:30:26.541Z,102546.50
2022-10-17T23:32:53.094Z,102540.28
2022-10-17T23:35:19.475Z,102540.28
2022-10-17T23:37:45.891Z,102540.28
2022-10-17T23:40:12.614Z,102534.94
2022-10-17T23:42:42.025Z,102542.00
2022-10-17T23:45:09.136Z,102545.50
2022-10-17T23:47:35.457Z,102545.47
2022-10-17T23:50:05.929Z,102538.34
2022-10-17T23:52:32.521Z,102541.91
2022-10-17T23:54:58.858Z,102537.44
2022-10-17T23:57:25.231Z,102539.19
2022-10-17T23:59:51.661Z,102537.38
